createdAt,value
2016-09-01T00:00:28.713Z,0
2016-09-01T00:01:28.387Z,0
2016-09-01T00:02:28.398Z,0
2016-09-01T00:03:28.445Z,0
2016-09-01T00:04:28.415Z,0
2016-09-01T00:05:28.404Z,0
2016-09-01T00:06:28.430Z,0
2016-09-01T00:07:28.406Z,0
2016-09-01T00:08:28.425Z,0
2016-09-01T00:09:29.130Z,0
2016-09-01T00:10:28.421Z,0
2016-09-01T00:11:28.427Z,0
2016-09-01T00:12:28.423Z,0
2016-09-01T00:13:28.462Z,0
2016-09-01T00:14:28.433Z,0
2016-09-01T00:15:28.428Z,0
2016-09-01T00:16:28.432Z,0
2016-09-01T00:17:28.439Z,0
2016-09-01T00:18:28.437Z,0
2016-09-01T00:19:28.442Z,0
2016-09-01T00:20:28.445Z,0
2016-09-01T00:21:28.449Z,0
2016-09-01T00:22:28.452Z,0
2016-09-01T00:23:28.456Z,0
2016-09-01T00:24:28.459Z,0
2016-09-01T00:25:28.467Z,0
2016-09-01T00:26:28.466Z,0
2016-09-01T00:27:28.472Z,0
2016-09-01T00:28:28.464Z,0
2016-09-01T00:29:28.468Z,0
2016-09-01T00:30:28.493Z,0
2016-09-01T00:31:28.487Z,0
2016-09-01T00:32:28.486Z,0
2016-09-01T00:33:28.492Z,0
2016-09-01T00:34:28.491Z,0
2016-09-01T00:35:28.504Z,0
2016-09-01T00:36:28.496Z,0
2016-09-01T00:37:28.503Z,0
2016-09-01T00:38:28.510Z,0
2016-09-01T00:39:28.506Z,0
2016-09-01T00:40:28.508Z,0
2016-09-01T00:41:28.512Z,0
2016-09-01T00:42:28.511Z,0
2016-09-01T00:43:28.518Z,0
2016-09-01T00:44:28.526Z,0
2016-09-01T00:45:28.525Z,0
2016-09-01T00:46:28.551Z,0
2016-09-01T00:47:28.535Z,0
2016-09-01T00:48:28.535Z,0
2016-09-01T00:49:28.537Z,0
2016-09-01T00:50:28.550Z,0
2016-09-01T00:51:28.548Z,0
2016-09-01T00:52:28.541Z,0
2016-09-01T00:53:29.262Z,0
2016-09-01T00:54:28.568Z,0
2016-09-01T00:55:29.054Z,0
2016-09-01T00:56:28.566Z,0
2016-09-01T00:57:28.567Z,0
2016-09-01T00:58:29.273Z,0
2016-09-01T00:59:28.564Z,0
2016-09-01T01:00:28.567Z,0
2016-09-01T01:01:28.572Z,0
2016-09-01T01:02:28.576Z,0
2016-09-01T01:03:28.638Z,0
2016-09-01T01:04:28.573Z,0
2016-09-01T01:05:28.585Z,0
2016-09-01T01:06:28.583Z,0
2016-09-01T01:07:28.583Z,0
2016-09-01T01:08:28.591Z,0
2016-09-01T01:09:28.592Z,0
2016-09-01T01:10:28.602Z,0
2016-09-01T01:11:29.301Z,0
2016-09-01T01:12:28.602Z,0
2016-09-01T01:13:29.313Z,0
2016-09-01T01:14:28.630Z,0
2016-09-01T01:15:28.604Z,0
2016-09-01T01:16:28.618Z,0
2016-09-01T01:17:28.621Z,0
2016-09-01T01:18:28.608Z,0
2016-09-01T01:19:28.622Z,0
2016-09-01T01:20:28.633Z,0
2016-09-01T01:21:28.633Z,0
2016-09-01T01:22:28.635Z,0
2016-09-01T01:23:28.633Z,0
2016-09-01T01:24:28.637Z,0
2016-09-01T01:25:29.335Z,0
2016-09-01T01:26:28.636Z,0
2016-09-01T01:27:28.643Z,0
2016-09-01T01:28:28.635Z,0
2016-09-01T01:29:28.639Z,0
2016-09-01T01:30:28.640Z,0
2016-09-01T01:31:28.642Z,0
2016-09-01T01:32:28.667Z,0
2016-09-01T01:33:28.644Z,0
2016-09-01T01:34:29.354Z,0
2016-09-01T01:35:28.669Z,0
2016-09-01T01:36:28.666Z,0
2016-09-01T01:37:28.666Z,0
2016-09-01T01:38:28.680Z,0
2016-09-01T01:39:28.669Z,0
2016-09-01T01:40:28.671Z,0
2016-09-01T01:41:28.670Z,0
2016-09-01T01:42:28.672Z,0
2016-09-01T01:43:29.382Z,0
2016-09-01T01:44:28.683Z,0
2016-09-01T01:45:28.693Z,0
2016-09-01T01:46:28.686Z,0
2016-09-01T01:47:28.683Z,0
2016-09-01T01:48:28.686Z,0
2016-09-01T01:49:28.695Z,0
2016-09-01T01:50:28.690Z,0
2016-09-01T01:51:28.692Z,0
2016-09-01T01:52:28.698Z,0
2016-09-01T01:53:28.702Z,0
2016-09-01T01:54:28.707Z,0
2016-09-01T01:55:28.707Z,0
2016-09-01T01:56:28.702Z,0
2016-09-01T01:57:28.708Z,0
2016-09-01T01:58:28.711Z,0
2016-09-01T01:59:28.725Z,0
2016-09-01T02:00:28.718Z,0
2016-09-01T02:01:28.728Z,0
2016-09-01T02:02:28.723Z,0
2016-09-01T02:03:29.528Z,0
2016-09-01T02:04:28.726Z,0
2016-09-01T02:05:29.647Z,0
2016-09-01T02:06:28.747Z,0
2016-09-01T02:07:28.727Z,0
2016-09-01T02:08:28.741Z,0
2016-09-01T02:09:28.747Z,0
2016-09-01T02:10:28.751Z,0
2016-09-01T02:11:28.743Z,0
2016-09-01T02:12:28.757Z,0
2016-09-01T02:13:28.767Z,0
2016-09-01T02:14:28.751Z,0
2016-09-01T02:15:28.755Z,0
2016-09-01T02:16:28.752Z,0
2016-09-01T02:17:28.752Z,0
2016-09-01T02:18:28.749Z,0
2016-09-01T02:19:28.766Z,0
2016-09-01T02:20:28.769Z,0
2016-09-01T02:21:28.766Z,0
2016-09-01T02:22:28.763Z,0
2016-09-01T02:23:29.483Z,0
2016-09-01T02:24:28.769Z,0
2016-09-01T02:25:28.779Z,0
2016-09-01T02:26:28.769Z,0
2016-09-01T02:27:28.782Z,0
2016-09-01T02:28:28.773Z,0
2016-09-01T02:29:28.772Z,0
2016-09-01T02:30:28.782Z,0
2016-09-01T02:31:28.782Z,0
2016-09-01T02:32:28.798Z,0
2016-09-01T02:33:30.213Z,0
2016-09-01T02:34:28.788Z,0
2016-09-01T02:35:28.812Z,0
2016-09-01T02:36:28.799Z,0
2016-09-01T02:37:28.792Z,0
2016-09-01T02:38:28.798Z,0
2016-09-01T02:39:29.506Z,0
2016-09-01T02:40:28.796Z,0
2016-09-01T02:41:28.808Z,0
2016-09-01T02:42:28.842Z,0
2016-09-01T02:43:28.821Z,0
2016-09-01T02:44:28.834Z,0
2016-09-01T02:45:28.834Z,0
2016-09-01T02:46:28.817Z,0
2016-09-01T02:47:28.835Z,0
2016-09-01T02:48:28.824Z,0
2016-09-01T02:49:28.838Z,0
2016-09-01T02:50:28.836Z,0
2016-09-01T02:51:28.826Z,0
2016-09-01T02:52:28.839Z,0
2016-09-01T02:53:28.836Z,0
2016-09-01T02:54:28.839Z,0
2016-09-01T02:55:28.874Z,0
2016-09-01T02:56:28.838Z,0
2016-09-01T02:57:28.847Z,0
2016-09-01T02:58:28.851Z,0
2016-09-01T02:59:28.850Z,0
2016-09-01T03:00:29.554Z,0
2016-09-01T03:01:28.867Z,0
2016-09-01T03:02:28.855Z,0
2016-09-01T03:03:28.865Z,0
2016-09-01T03:04:28.866Z,0
2016-09-01T03:05:28.867Z,0
2016-09-01T03:06:28.876Z,0
2016-09-01T03:07:28.867Z,0
2016-09-01T03:08:28.868Z,0
2016-09-01T03:09:28.872Z,0
2016-09-01T03:10:29.594Z,0
2016-09-01T03:11:28.873Z,0
2016-09-01T03:12:28.879Z,0
2016-09-01T03:13:28.886Z,0
2016-09-01T03:14:28.880Z,0
2016-09-01T03:15:28.881Z,0
2016-09-01T03:16:28.878Z,0
2016-09-01T03:17:28.883Z,0
2016-09-01T03:18:28.909Z,0
2016-09-01T03:19:28.888Z,0
2016-09-01T03:20:28.909Z,0
2016-09-01T03:21:28.910Z,0
2016-09-01T03:22:28.889Z,0
2016-09-01T03:23:28.919Z,0
2016-09-01T03:24:28.903Z,0
2016-09-01T03:25:28.909Z,0
2016-09-01T03:26:28.905Z,0
2016-09-01T03:27:28.926Z,0
2016-09-01T03:28:28.912Z,0
2016-09-01T03:29:29.635Z,0
2016-09-01T03:30:28.925Z,0
2016-09-01T03:31:28.911Z,0
2016-09-01T03:32:28.916Z,0
2016-09-01T03:33:28.941Z,0
2016-09-01T03:34:28.923Z,0
2016-09-01T03:35:28.999Z,0
2016-09-01T03:36:28.925Z,0
2016-09-01T03:37:28.966Z,0
2016-09-01T03:38:28.929Z,0
2016-09-01T03:39:28.929Z,0
2016-09-01T03:40:28.942Z,0
2016-09-01T03:41:28.939Z,0
2016-09-01T03:42:28.947Z,0
2016-09-01T03:43:28.935Z,0
2016-09-01T03:44:28.942Z,0
2016-09-01T03:45:29.657Z,0
2016-09-01T03:46:28.942Z,0
2016-09-01T03:47:28.949Z,0
2016-09-01T03:48:28.937Z,0
2016-09-01T03:49:28.949Z,0
2016-09-01T03:50:29.195Z,0
2016-09-01T03:51:28.971Z,0
2016-09-01T03:52:28.957Z,0
2016-09-01T03:53:28.978Z,0
2016-09-01T03:54:29.704Z,0
2016-09-01T03:55:28.973Z,0
2016-09-01T03:56:28.984Z,0
2016-09-01T03:57:28.977Z,0
2016-09-01T03:58:28.977Z,0
2016-09-01T03:59:28.981Z,0
2016-09-01T04:00:28.987Z,0
2016-09-01T04:01:29.000Z,0
2016-09-01T04:02:29.010Z,0
2016-09-01T04:03:29.003Z,0
2016-09-01T04:04:28.981Z,4
2016-09-01T04:05:29.008Z,4
2016-09-01T04:06:29.003Z,4
2016-09-01T04:07:29.005Z,0
2016-09-01T04:08:29.002Z,4
2016-09-01T04:09:28.992Z,4
2016-09-01T04:10:29.001Z,4
2016-09-01T04:11:29.048Z,4
2016-09-01T04:12:29.007Z,4
2016-09-01T04:13:29.016Z,4
2016-09-01T04:14:29.013Z,8
2016-09-01T04:15:29.021Z,8
2016-09-01T04:16:29.037Z,8
2016-09-01T04:17:29.015Z,8
2016-09-01T04:18:29.027Z,12
2016-09-01T04:19:29.012Z,16
2016-09-01T04:20:29.747Z,20
2016-09-01T04:21:29.020Z,20
2016-09-01T04:22:29.015Z,24
2016-09-01T04:23:29.033Z,28
2016-09-01T04:24:29.049Z,32
2016-09-01T04:25:29.024Z,36
2016-09-01T04:26:29.028Z,44
2016-09-01T04:27:29.036Z,48
2016-09-01T04:28:29.030Z,56
2016-09-01T04:29:29.042Z,64
2016-09-01T04:30:29.045Z,76
2016-09-01T04:31:29.750Z,84
2016-09-01T04:32:29.048Z,96
2016-09-01T04:33:29.064Z,104
2016-09-01T04:34:29.043Z,116
2016-09-01T04:35:29.073Z,132
2016-09-01T04:36:29.038Z,144
2016-09-01T04:37:29.046Z,164
2016-09-01T04:38:29.059Z,176
2016-09-01T04:39:29.075Z,196
2016-09-01T04:40:29.066Z,212
2016-09-01T04:41:29.062Z,232
2016-09-01T04:42:29.066Z,252
2016-09-01T04:43:29.088Z,276
2016-09-01T04:44:29.073Z,300
2016-09-01T04:45:29.069Z,320
2016-09-01T04:46:29.063Z,348
2016-09-01T04:47:29.074Z,372
2016-09-01T04:48:29.073Z,404
2016-09-01T04:49:29.079Z,432
2016-09-01T04:50:29.084Z,460
2016-09-01T04:51:29.102Z,492
2016-09-01T04:52:29.116Z,532
2016-09-01T04:53:29.162Z,556
2016-09-01T04:54:29.807Z,592
2016-09-01T04:55:29.100Z,628
2016-09-01T04:56:29.095Z,664
2016-09-01T04:57:29.103Z,700
2016-09-01T04:58:29.092Z,740
2016-09-01T04:59:29.811Z,780
2016-09-01T05:00:29.122Z,820
2016-09-01T05:01:29.106Z,856
2016-09-01T05:02:29.088Z,920
2016-09-01T05:03:29.097Z,940
2016-09-01T05:04:29.098Z,984
2016-09-01T05:05:29.513Z,1032
2016-09-01T05:06:29.096Z,1084
2016-09-01T05:07:29.112Z,1136
2016-09-01T05:08:29.120Z,1184
2016-09-01T05:09:29.119Z,1200
2016-09-01T05:10:29.117Z,1216
2016-09-01T05:11:29.451Z,1420
2016-09-01T05:12:29.114Z,1336
2016-09-01T05:13:29.832Z,1372
2016-09-01T05:14:29.119Z,1340
2016-09-01T05:15:29.120Z,1420
2016-09-01T05:16:29.138Z,1608
2016-09-01T05:17:29.126Z,1700
2016-09-01T05:18:29.133Z,1748
2016-09-01T05:19:29.133Z,1800
2016-09-01T05:20:29.138Z,1872
2016-09-01T05:21:29.147Z,1980
2016-09-01T05:22:29.145Z,1796
2016-09-01T05:23:29.847Z,2036
2016-09-01T05:24:29.142Z,2108
2016-09-01T05:25:29.143Z,2168
2016-09-01T05:26:29.149Z,2216
2016-09-01T05:27:29.208Z,2216
2016-09-01T05:28:29.844Z,2148
2016-09-01T05:29:29.154Z,2056
2016-09-01T05:30:29.157Z,2032
2016-09-01T05:31:29.156Z,2060
2016-09-01T05:32:29.159Z,2100
2016-09-01T05:33:29.183Z,2216
2016-09-01T05:34:29.158Z,2196
2016-09-01T05:35:29.162Z,2260
2016-09-01T05:36:29.182Z,2340
2016-09-01T05:37:29.171Z,2412
2016-09-01T05:38:29.187Z,2476
2016-09-01T05:39:29.187Z,2532
2016-09-01T05:40:29.188Z,2616
2016-09-01T05:41:29.203Z,2732
2016-09-01T05:42:29.194Z,2880
2016-09-01T05:43:29.906Z,3096
2016-09-01T05:44:29.214Z,3172
2016-09-01T05:45:29.280Z,3404
2016-09-01T05:46:29.201Z,3612
2016-09-01T05:47:29.210Z,3816
2016-09-01T05:48:29.196Z,3948
2016-09-01T05:49:29.206Z,4020
2016-09-01T05:50:29.204Z,4000
2016-09-01T05:51:29.213Z,3944
2016-09-01T05:52:29.198Z,3992
2016-09-01T05:53:29.225Z,4036
2016-09-01T05:54:29.224Z,3864
2016-09-01T05:55:29.217Z,3720
2016-09-01T05:56:29.238Z,3656
2016-09-01T05:57:29.230Z,3692
2016-09-01T05:58:29.222Z,3768
2016-09-01T05:59:29.221Z,3780
2016-09-01T06:00:29.232Z,3720
2016-09-01T06:01:29.232Z,3688
2016-09-01T06:02:29.267Z,3644
2016-09-01T06:03:29.281Z,3696
2016-09-01T06:04:29.948Z,3912
2016-09-01T06:05:29.739Z,3912
2016-09-01T06:06:29.268Z,4108
2016-09-01T06:07:29.270Z,3888
2016-09-01T06:08:29.262Z,3688
2016-09-01T06:09:29.260Z,3552
2016-09-01T06:10:29.289Z,3472
2016-09-01T06:11:29.272Z,3424
2016-09-01T06:12:29.288Z,3444
2016-09-01T06:13:29.273Z,3536
2016-09-01T06:14:29.350Z,3624
2016-09-01T06:15:29.273Z,3740
2016-09-01T06:16:29.275Z,3848
2016-09-01T06:17:29.272Z,4024
2016-09-01T06:18:29.280Z,4104
2016-09-01T06:19:29.288Z,3628
2016-09-01T06:20:29.292Z,3716
2016-09-01T06:21:29.334Z,4716
2016-09-01T06:22:29.309Z,4548
2016-09-01T06:23:29.300Z,3728
2016-09-01T06:24:29.325Z,3140
2016-09-01T06:25:29.998Z,3080
2016-09-01T06:26:29.310Z,3136
2016-09-01T06:27:29.309Z,3108
2016-09-01T06:28:29.307Z,3152
2016-09-01T06:29:29.313Z,3228
2016-09-01T06:30:29.500Z,3340
2016-09-01T06:31:29.345Z,3580
2016-09-01T06:32:29.327Z,4800
2016-09-01T06:33:29.328Z,8120
2016-09-01T06:34:29.328Z,8172
2016-09-01T06:35:29.329Z,8224
2016-09-01T06:36:29.333Z,8440
2016-09-01T06:37:29.340Z,8584
2016-09-01T06:38:30.059Z,8568
2016-09-01T06:39:29.398Z,9064
2016-09-01T06:40:29.373Z,8768
2016-09-01T06:41:29.350Z,8648
2016-09-01T06:42:29.353Z,8436
2016-09-01T06:43:29.354Z,8604
2016-09-01T06:44:29.354Z,8504
2016-09-01T06:45:29.833Z,8332
2016-09-01T06:46:29.367Z,8160
2016-09-01T06:47:29.368Z,7236
2016-09-01T06:48:29.379Z,5968
2016-09-01T06:49:29.381Z,6504
2016-09-01T06:50:29.399Z,8228
2016-09-01T06:51:29.441Z,8800
2016-09-01T06:52:29.395Z,9088
2016-09-01T06:53:30.173Z,8520
2016-09-01T06:54:29.416Z,9276
2016-09-01T06:55:29.420Z,9496
2016-09-01T06:56:29.421Z,10292
2016-09-01T06:57:29.424Z,7376
2016-09-01T06:58:29.433Z,11228
2016-09-01T06:59:29.432Z,11088
2016-09-01T07:00:29.481Z,9784
2016-09-01T07:01:29.451Z,8652
2016-09-01T07:02:29.443Z,7204
2016-09-01T07:03:29.458Z,6116
2016-09-01T07:04:29.463Z,6128
2016-09-01T07:05:29.467Z,6104
2016-09-01T07:06:29.539Z,6060
2016-09-01T07:07:29.489Z,6116
2016-09-01T07:08:29.484Z,6012
2016-09-01T07:09:30.194Z,5940
2016-09-01T07:10:29.492Z,5944
2016-09-01T07:11:29.501Z,5808
2016-09-01T07:12:29.509Z,5704
2016-09-01T07:13:29.512Z,5744
2016-09-01T07:14:29.515Z,8784
2016-09-01T07:15:29.675Z,5996
2016-09-01T07:16:29.532Z,9476
2016-09-01T07:17:29.534Z,7240
2016-09-01T07:18:29.591Z,5724
2016-09-01T07:19:29.540Z,7652
2016-09-01T07:20:29.552Z,5416
2016-09-01T07:21:30.265Z,5480
2016-09-01T07:22:29.556Z,6284
2016-09-01T07:23:29.570Z,6760
2016-09-01T07:24:29.574Z,5920
2016-09-01T07:25:29.571Z,5496
2016-09-01T07:26:29.582Z,6068
2016-09-01T07:27:29.597Z,6524
2016-09-01T07:28:30.294Z,5196
2016-09-01T07:29:29.590Z,4820
2016-09-01T07:30:29.591Z,4712
2016-09-01T07:31:29.594Z,4580
2016-09-01T07:32:29.614Z,5364
2016-09-01T07:33:29.615Z,4748
2016-09-01T07:34:29.623Z,4656
2016-09-01T07:35:29.632Z,4592
2016-09-01T07:36:29.643Z,4492
2016-09-01T07:37:29.624Z,4236
2016-09-01T07:38:29.638Z,3996
2016-09-01T07:39:29.638Z,4480
2016-09-01T07:40:29.993Z,3944
2016-09-01T07:41:29.822Z,4032
2016-09-01T07:42:29.652Z,4020
2016-09-01T07:43:29.646Z,3992
2016-09-01T07:44:29.655Z,4072
2016-09-01T07:45:29.674Z,4048
2016-09-01T07:46:29.662Z,4252
2016-09-01T07:47:29.668Z,9168
2016-09-01T07:48:29.677Z,8792
2016-09-01T07:49:29.688Z,8340
2016-09-01T07:50:29.699Z,7164
2016-09-01T07:51:29.699Z,7404
2016-09-01T07:52:29.692Z,5140
2016-09-01T07:53:29.696Z,8912
2016-09-01T07:54:29.704Z,9284
2016-09-01T07:55:29.712Z,9228
2016-09-01T07:56:29.717Z,9036
2016-09-01T07:57:29.718Z,9248
2016-09-01T07:58:29.717Z,9316
2016-09-01T07:59:29.736Z,9444
2016-09-01T08:00:29.735Z,9520
2016-09-01T08:01:29.738Z,9684
2016-09-01T08:02:29.746Z,9724
2016-09-01T08:03:29.761Z,9712
2016-09-01T08:04:29.762Z,9804
2016-09-01T08:05:29.770Z,8572
2016-09-01T08:06:29.770Z,8736
2016-09-01T08:07:29.784Z,8688
2016-09-01T08:08:29.783Z,8628
2016-09-01T08:09:29.788Z,8500
2016-09-01T08:10:29.874Z,8260
2016-09-01T08:11:29.805Z,8300
2016-09-01T08:12:29.813Z,10028
2016-09-01T08:13:29.822Z,9856
2016-09-01T08:14:30.540Z,9888
2016-09-01T08:15:29.838Z,10044
2016-09-01T08:16:29.835Z,10412
2016-09-01T08:17:29.845Z,10348
2016-09-01T08:18:29.858Z,10484
2016-09-01T08:19:29.859Z,10480
2016-09-01T08:20:30.633Z,10364
2016-09-01T08:21:29.871Z,10092
2016-09-01T08:22:29.879Z,9916
2016-09-01T08:23:29.940Z,9792
2016-09-01T08:24:29.896Z,9816
2016-09-01T08:25:29.925Z,9984
2016-09-01T08:26:30.615Z,10264
2016-09-01T08:27:29.924Z,10228
2016-09-01T08:28:29.922Z,10096
2016-09-01T08:29:29.949Z,10064
2016-09-01T08:30:29.955Z,9960
2016-09-01T08:31:29.942Z,10056
2016-09-01T08:32:29.955Z,10052
2016-09-01T08:33:29.962Z,10128
2016-09-01T08:34:30.000Z,10252
2016-09-01T08:35:30.747Z,10236
2016-09-01T08:36:29.996Z,10180
2016-09-01T08:37:30.002Z,9940
2016-09-01T08:38:30.719Z,9628
2016-09-01T08:39:30.015Z,9268
2016-09-01T08:40:30.025Z,9020
2016-09-01T08:41:30.032Z,8992
2016-09-01T08:42:30.034Z,8944
2016-09-01T08:43:30.054Z,9112
2016-09-01T08:44:30.057Z,9032
2016-09-01T08:45:30.064Z,9084
2016-09-01T08:46:30.073Z,9180
2016-09-01T08:47:30.072Z,9108
2016-09-01T08:48:30.106Z,8992
2016-09-01T08:49:30.089Z,8640
2016-09-01T08:50:30.107Z,8440
2016-09-01T08:51:30.115Z,8160
2016-09-01T08:52:30.158Z,8176
2016-09-01T08:53:30.122Z,8188
2016-09-01T08:54:30.130Z,8096
2016-09-01T08:55:30.151Z,8040
2016-09-01T08:56:30.149Z,7976
2016-09-01T08:57:30.154Z,8032
2016-09-01T08:58:30.151Z,8028
2016-09-01T08:59:30.876Z,8016
2016-09-01T09:00:30.158Z,8048
2016-09-01T09:01:30.169Z,7932
2016-09-01T09:02:30.178Z,7796
2016-09-01T09:03:30.177Z,7596
2016-09-01T09:04:30.903Z,7396
2016-09-01T09:05:30.938Z,7324
2016-09-01T09:06:30.189Z,7332
2016-09-01T09:07:30.225Z,7344
2016-09-01T09:08:30.217Z,7220
2016-09-01T09:09:30.231Z,7152
2016-09-01T09:10:30.233Z,6976
2016-09-01T09:11:30.215Z,6768
2016-09-01T09:12:30.220Z,6340
2016-09-01T09:13:30.236Z,6660
2016-09-01T09:14:30.234Z,7296
2016-09-01T09:15:31.181Z,7232
2016-09-01T09:16:30.245Z,7292
2016-09-01T09:17:30.254Z,7300
2016-09-01T09:18:30.255Z,7284
2016-09-01T09:19:30.271Z,7268
2016-09-01T09:20:30.275Z,7216
2016-09-01T09:21:30.268Z,7248
2016-09-01T09:22:30.279Z,7272
2016-09-01T09:23:30.285Z,7216
2016-09-01T09:24:30.287Z,7048
2016-09-01T09:25:30.298Z,7252
2016-09-01T09:26:30.296Z,7332
2016-09-01T09:27:30.308Z,7244
2016-09-01T09:28:30.306Z,7308
2016-09-01T09:29:30.318Z,7388
2016-09-01T09:30:30.361Z,7288
2016-09-01T09:31:30.324Z,7316
2016-09-01T09:32:30.330Z,7476
2016-09-01T09:33:31.034Z,6624
2016-09-01T09:34:30.336Z,7568
2016-09-01T09:35:30.357Z,7440
2016-09-01T09:36:30.347Z,7396
2016-09-01T09:37:30.353Z,7332
2016-09-01T09:38:30.359Z,7188
2016-09-01T09:39:30.356Z,6816
2016-09-01T09:40:30.370Z,5072
2016-09-01T09:41:30.370Z,6036
2016-09-01T09:42:30.376Z,7004
2016-09-01T09:43:31.090Z,5408
2016-09-01T09:44:30.382Z,5544
2016-09-01T09:45:30.401Z,5448
2016-09-01T09:46:30.395Z,6392
2016-09-01T09:47:30.412Z,5444
2016-09-01T09:48:30.407Z,7040
2016-09-01T09:49:30.410Z,7380
2016-09-01T09:50:30.431Z,6164
2016-09-01T09:51:30.431Z,5516
2016-09-01T09:52:30.425Z,7084
2016-09-01T09:53:30.436Z,7464
2016-09-01T09:54:30.433Z,5648
2016-09-01T09:55:30.942Z,5576
2016-09-01T09:56:30.455Z,5912
2016-09-01T09:57:30.463Z,7816
2016-09-01T09:58:30.457Z,7932
2016-09-01T09:59:30.457Z,7856
2016-09-01T10:00:30.477Z,7872
2016-09-01T10:01:30.472Z,7972
2016-09-01T10:02:30.470Z,8036
2016-09-01T10:03:30.488Z,8068
2016-09-01T10:04:30.493Z,7972
2016-09-01T10:05:30.495Z,7988
2016-09-01T10:06:30.494Z,8000
2016-09-01T10:07:30.498Z,7744
2016-09-01T10:08:30.505Z,7916
2016-09-01T10:09:30.531Z,7784
2016-09-01T10:10:30.627Z,8228
2016-09-01T10:11:30.527Z,8328
2016-09-01T10:12:30.534Z,7180
2016-09-01T10:13:30.529Z,6796
2016-09-01T10:14:30.546Z,6760
2016-09-01T10:15:30.551Z,7000
2016-09-01T10:16:30.555Z,7212
2016-09-01T10:17:30.546Z,7540
2016-09-01T10:18:30.553Z,7852
2016-09-01T10:19:30.556Z,8088
2016-09-01T10:20:30.579Z,9456
2016-09-01T10:21:30.571Z,8712
2016-09-01T10:22:30.581Z,8628
2016-09-01T10:23:31.140Z,8700
2016-09-01T10:24:30.606Z,8924
2016-09-01T10:25:30.595Z,9008
2016-09-01T10:26:30.595Z,8832
2016-09-01T10:27:30.603Z,8628
2016-09-01T10:28:30.609Z,9004
2016-09-01T10:29:31.461Z,8496
2016-09-01T10:30:30.626Z,8752
2016-09-01T10:31:30.631Z,9484
2016-09-01T10:32:30.621Z,8792
2016-09-01T10:33:30.637Z,8968
2016-09-01T10:34:30.640Z,9776
2016-09-01T10:35:30.653Z,9340
2016-09-01T10:36:30.659Z,9628
2016-09-01T10:37:30.676Z,9764
2016-09-01T10:38:30.650Z,11328
2016-09-01T10:39:30.671Z,10492
2016-09-01T10:40:30.667Z,10104
2016-09-01T10:41:30.673Z,10048
2016-09-01T10:42:30.676Z,9640
2016-09-01T10:43:31.392Z,9500
2016-09-01T10:44:30.687Z,9336
2016-09-01T10:45:30.820Z,9252
2016-09-01T10:46:30.704Z,8996
2016-09-01T10:47:30.703Z,8520
2016-09-01T10:48:30.705Z,8060
2016-09-01T10:49:30.710Z,7856
2016-09-01T10:50:30.799Z,7740
2016-09-01T10:51:30.730Z,7684
2016-09-01T10:52:30.733Z,7584
2016-09-01T10:53:30.735Z,7332
2016-09-01T10:54:30.736Z,7152
2016-09-01T10:55:30.747Z,7108
2016-09-01T10:56:30.751Z,6936
2016-09-01T10:57:30.757Z,6748
2016-09-01T10:58:30.760Z,6596
2016-09-01T10:59:30.764Z,6572
2016-09-01T11:00:30.769Z,6700
2016-09-01T11:01:30.780Z,6744
2016-09-01T11:02:30.781Z,6820
2016-09-01T11:03:30.787Z,6908
2016-09-01T11:04:30.814Z,7256
2016-09-01T11:05:30.898Z,8008
2016-09-01T11:06:30.814Z,9012
2016-09-01T11:07:30.824Z,9716
2016-09-01T11:08:30.811Z,10396
2016-09-01T11:09:30.838Z,10896
2016-09-01T11:10:30.824Z,11432
2016-09-01T11:11:30.832Z,10712
2016-09-01T11:12:30.845Z,10208
2016-09-01T11:13:30.849Z,9908
2016-09-01T11:14:30.845Z,9828
2016-09-01T11:15:30.869Z,9700
2016-09-01T11:16:31.562Z,9440
2016-09-01T11:17:30.872Z,9244
2016-09-01T11:18:30.873Z,9068
2016-09-01T11:19:30.872Z,8980
2016-09-01T11:20:30.922Z,8768
2016-09-01T11:21:30.887Z,8416
2016-09-01T11:22:31.660Z,8204
2016-09-01T11:23:30.909Z,7956
2016-09-01T11:24:30.900Z,8252
2016-09-01T11:25:31.022Z,7652
2016-09-01T11:26:30.922Z,8576
2016-09-01T11:27:30.942Z,8656
2016-09-01T11:28:30.943Z,9072
2016-09-01T11:29:30.940Z,8172
2016-09-01T11:30:30.940Z,8680
2016-09-01T11:31:30.954Z,10112
2016-09-01T11:32:30.950Z,9524
2016-09-01T11:33:30.957Z,8224
2016-09-01T11:34:31.681Z,7768
2016-09-01T11:35:32.309Z,7348
2016-09-01T11:36:30.978Z,7016
2016-09-01T11:37:30.980Z,7548
2016-09-01T11:38:31.004Z,7276
2016-09-01T11:39:31.003Z,6700
2016-09-01T11:40:31.013Z,7392
2016-09-01T11:41:31.005Z,6356
2016-09-01T11:42:31.006Z,6492
2016-09-01T11:43:31.021Z,6996
2016-09-01T11:44:31.028Z,7068
2016-09-01T11:45:31.029Z,7096
2016-09-01T11:46:31.029Z,7748
2016-09-01T11:47:31.034Z,8428
2016-09-01T11:48:31.041Z,8536
2016-09-01T11:49:31.058Z,8924
2016-09-01T11:50:31.262Z,9004
2016-09-01T11:51:31.060Z,8876
2016-09-01T11:52:31.075Z,8568
2016-09-01T11:53:31.082Z,8304
2016-09-01T11:54:31.079Z,7884
2016-09-01T11:55:31.074Z,6824
2016-09-01T11:56:31.096Z,7148
2016-09-01T11:57:31.094Z,8316
2016-09-01T11:58:31.093Z,8848
2016-09-01T11:59:31.100Z,9056
2016-09-01T12:00:31.111Z,8464
2016-09-01T12:01:31.114Z,8376
2016-09-01T12:02:31.139Z,9560
2016-09-01T12:03:31.125Z,9440
2016-09-01T12:04:31.838Z,9580
2016-09-01T12:05:31.174Z,9036
2016-09-01T12:06:31.150Z,8104
2016-09-01T12:07:31.147Z,7824
2016-09-01T12:08:31.154Z,7748
2016-09-01T12:09:31.159Z,7664
2016-09-01T12:10:31.964Z,7640
2016-09-01T12:11:31.172Z,7904
2016-09-01T12:12:31.886Z,7008
2016-09-01T12:13:31.180Z,6996
2016-09-01T12:14:31.185Z,7088
2016-09-01T12:15:31.979Z,6968
2016-09-01T12:16:31.198Z,6920
2016-09-01T12:17:31.204Z,7032
2016-09-01T12:18:31.221Z,7396
2016-09-01T12:19:31.218Z,8180
2016-09-01T12:20:31.248Z,8124
2016-09-01T12:21:31.225Z,8048
2016-09-01T12:22:31.934Z,7888
2016-09-01T12:23:31.946Z,7652
2016-09-01T12:24:31.729Z,7368
2016-09-01T12:25:31.365Z,6964
2016-09-01T12:26:31.965Z,6520
2016-09-01T12:27:31.966Z,6456
2016-09-01T12:28:31.271Z,6372
2016-09-01T12:29:31.278Z,6492
2016-09-01T12:30:31.289Z,6428
2016-09-01T12:31:31.294Z,6488
2016-09-01T12:32:31.294Z,6656
2016-09-01T12:33:31.294Z,6652
2016-09-01T12:34:31.298Z,6560
2016-09-01T12:35:31.410Z,6992
2016-09-01T12:36:31.324Z,7204
2016-09-01T12:37:31.316Z,7360
2016-09-01T12:38:31.330Z,7360
2016-09-01T12:39:31.355Z,7428
2016-09-01T12:40:31.352Z,7500
2016-09-01T12:41:31.339Z,7404
2016-09-01T12:42:31.357Z,7252
2016-09-01T12:43:31.358Z,7216
2016-09-01T12:44:32.080Z,7080
2016-09-01T12:45:31.390Z,6936
2016-09-01T12:46:31.382Z,6800
2016-09-01T12:47:31.373Z,6748
2016-09-01T12:48:31.409Z,6688
2016-09-01T12:49:31.384Z,6624
2016-09-01T12:50:31.461Z,6616
2016-09-01T12:51:36.038Z,6588
2016-09-01T12:52:31.410Z,6484
2016-09-01T12:53:31.416Z,6356
2016-09-01T12:54:31.416Z,6388
2016-09-01T12:55:31.419Z,6448
2016-09-01T12:56:31.427Z,6240
2016-09-01T12:57:31.439Z,5976
2016-09-01T12:58:31.438Z,6492
2016-09-01T12:59:31.449Z,6540
2016-09-01T13:00:31.552Z,6600
2016-09-01T13:01:31.450Z,6592
2016-09-01T13:02:31.464Z,6624
2016-09-01T13:03:31.475Z,6668
2016-09-01T13:04:31.472Z,6704
2016-09-01T13:05:31.657Z,6712
2016-09-01T13:06:31.476Z,6752
2016-09-01T13:07:31.481Z,6804
2016-09-01T13:08:31.490Z,6856
2016-09-01T13:09:32.220Z,6840
2016-09-01T13:10:31.493Z,6824
2016-09-01T13:11:31.525Z,6804
2016-09-01T13:12:31.864Z,6820
2016-09-01T13:13:31.529Z,6840
2016-09-01T13:14:31.539Z,6832
2016-09-01T13:15:31.527Z,6872
2016-09-01T13:16:31.553Z,6848
2016-09-01T13:17:31.557Z,6908
2016-09-01T13:18:31.534Z,6912
2016-09-01T13:19:31.549Z,6916
2016-09-01T13:20:31.602Z,6920
2016-09-01T13:21:31.710Z,6456
2016-09-01T13:22:31.558Z,6868
2016-09-01T13:23:31.585Z,6820
2016-09-01T13:24:31.604Z,6764
2016-09-01T13:25:31.571Z,6752
2016-09-01T13:26:31.592Z,6740
2016-09-01T13:27:31.613Z,6672
2016-09-01T13:28:31.604Z,6604
2016-09-01T13:29:31.597Z,6572
2016-09-01T13:30:31.625Z,6548
2016-09-01T13:31:32.332Z,6444
2016-09-01T13:32:31.625Z,6368
2016-09-01T13:33:31.617Z,6316
2016-09-01T13:34:31.636Z,6228
2016-09-01T13:35:31.713Z,6180
2016-09-01T13:36:31.636Z,6108
2016-09-01T13:37:31.651Z,6100
2016-09-01T13:38:31.656Z,6172
2016-09-01T13:39:31.648Z,6160
2016-09-01T13:40:31.673Z,6132
2016-09-01T13:41:31.656Z,6144
2016-09-01T13:42:31.678Z,6112
2016-09-01T13:43:31.660Z,6064
2016-09-01T13:44:31.675Z,6044
2016-09-01T13:45:31.696Z,5968